Pagrindinis puslapis
METAR-TAF:

METAR-TAF

Oro uostai :

Rajahmundry, Indija

platuma: 17-06-37N, ilguma: 81-49-06E, Aukštis: 46 m

Dabartinis oras

Ataskaita buvo paskelbta 40 minutes, ne 14:30 UTC
Vėjas 6 kt iš Šiaurės
Temperatūra 29°C
Drėgmė 74%
Slėgis 1004 hPa
Matomumas: 6000 m
Mažai debesys ne aukštis 2000 ft
Su prošvaistėmis ne aukštis 9000 ft

METAR: VORY 171430Z 01006KT 6000 FEW020 BKN090 29/24 Q1004 NOSIG

Laikas: 20:40 (15:10 UTC)

Prognozė

Ataskaita buvo paskelbta 4 valandos ir 10 minutes, ne 11:00 UTC
Prognozė galioja nuo 17 metu 12 UTC su 17 metu 21 UTC
Vėjas 10 kt iš Pietvakarių
Matomumas: 5000 m
Išsisklaidę debesys ne aukštis 2000 ft
Su prošvaistėmis ne aukštis 8000 ft
dulksna, migla
Laikinai
nuo 17 metu 12 UTC su 17 metu 18 UTC
Matomumas: 3000 m
Mažai debesys ne aukštis 3000 ft, Liūtiniai kamuoliniai debesys.
Apsiniaukę ne aukštis 8000 ft
perkūnija, lietus

TAF: VORY 171100Z 1712/1721 23010KT 5000 DZ HZ SCT020 BKN080 TEMPO 1712/1718 3000 TSRA RAB FEW030CB OVC080

Orai ataskaitas ir orų prognozės (METAR, TAF).

turimą stotys yra geltonos ir raudonos taškus žemėlapyje.

Perkelti pele per norėdami pamatyti stoties vardą.

Tada spustelėkite, norėdami matyti oro stebėjimo ir prognozės.

Norėdami pakeisti žemėlapį: spustelėkite ant žalios mygtukų su juodo kryžiaus žemyn,; žalią mygtuką su brūkšneliu, jei norite nutolinti; arba žalių rodyklių gretimoms žemėlapius.


METAR-TAF: